Time;durP1;ratioP1;P1;durP2;ratioP2;P2;SDS_P1;SDS_P2;PMS_P1;PMS_P2;Temp;Humidity;BMP_temperature;BMP_pressure;BME280_temperature;BME280_humidity;BME280_pressure;Samples;Min_cycle;Max_cycle;Signal;HPM_P1;HPM_P2
2021/07/28 00:00:35;;;;;;;42.88;19.58;;;;;;;14.85;96.87;101041.34;6126976;23;20006;-80
2021/07/28 00:03:01;;;;;;;38.67;18.13;;;;;;;14.84;96.73;101045.78;6127503;23;20001;-84
2021/07/28 00:05:27;;;;;;;35.38;18.02;;;;;;;14.83;96.46;101041.34;6127736;23;20021;-82
2021/07/28 00:07:53;;;;;;;41.72;18.92;;;;;;;14.83;96.61;101037.84;6127405;23;20012;-80
2021/07/28 00:10:20;;;;;;;36.38;18.20;;;;;;;14.81;96.50;101032.53;6127581;23;20433;-85
2021/07/28 00:12:45;;;;;;;41.15;17.67;;;;;;;14.80;96.49;101022.81;6127296;23;20013;-86
2021/07/28 00:15:11;;;;;;;39.58;18.40;;;;;;;14.78;96.17;101021.91;6127163;23;20500;-84
2021/07/28 00:17:46;;;;;;;36.00;17.00;;;;;;;14.75;96.21;101023.69;6126976;23;20009;-82
2021/07/28 00:23:20;;;;;;;44.53;18.35;;;;;;;14.74;96.43;101014.84;6131640;23;20022;-81
2021/07/28 00:26:06;;;;;;;38.47;18.08;;;;;;;14.75;96.36;101019.25;6127378;23;20022;-83
2021/07/28 00:28:33;;;;;;;43.40;18.70;;;;;;;14.72;96.45;101016.63;6105686;23;20081;-80
2021/07/28 00:30:59;;;;;;;36.72;19.10;;;;;;;14.72;96.25;101015.72;6127387;23;20440;-81
2021/07/28 00:33:24;;;;;;;46.58;20.33;;;;;;;14.70;96.57;101013.06;6127496;23;20010;-85
2021/07/28 00:35:50;;;;;;;35.70;17.92;;;;;;;14.69;96.37;101016.63;6127219;23;20002;-87
2021/07/28 00:38:15;;;;;;;51.72;20.58;;;;;;;14.68;96.79;101014.84;6127350;23;20472;-82
2021/07/28 00:40:45;;;;;;;42.45;19.17;;;;;;;14.68;96.49;101012.19;6127416;23;20002;-85
2021/07/28 00:43:32;;;;;;;47.15;21.08;;;;;;;14.68;96.72;101009.53;6128222;23;20009;-85
2021/07/28 00:45:57;;;;;;;50.13;21.98;;;;;;;14.69;96.80;101006.03;6128088;23;20006;-82
2021/07/28 00:48:23;;;;;;;46.20;22.52;;;;;;;14.68;96.74;101009.53;6128308;23;20049;-82
2021/07/28 00:50:48;;;;;;;55.00;22.42;;;;;;;14.67;96.87;101010.41;6127673;23;20033;-81
2021/07/28 00:53:34;;;;;;;52.33;22.77;;;;;;;14.68;97.02;101004.25;6102011;23;20052;-81
2021/07/28 00:56:00;;;;;;;52.92;22.13;;;;;;;14.65;96.81;101004.25;6128086;23;20010;-82
2021/07/28 00:58:30;;;;;;;50.47;21.27;;;;;;;14.63;96.92;101001.56;6128070;23;20069;-86
2021/07/28 01:00:55;;;;;;;68.97;24.80;;;;;;;14.63;97.08;101006.88;6127786;23;20005;-81
2021/07/28 01:03:21;;;;;;;69.35;25.52;;;;;;;14.63;97.00;100998.06;6101633;23;20444;-87
2021/07/28 01:05:46;;;;;;;63.28;27.13;;;;;;;14.65;97.15;100997.19;6128147;23;20006;-86
2021/07/28 01:08:31;;;;;;;68.32;27.88;;;;;;;14.65;97.22;100993.66;6128002;23;20002;-84
2021/07/28 01:11:00;;;;;;;68.75;26.00;;;;;;;14.66;97.42;100990.09;6127770;23;20014;-81
2021/07/28 01:13:30;;;;;;;76.85;27.42;;;;;;;14.64;97.40;100989.22;6127391;23;20021;-81
2021/07/28 01:16:18;;;;;;;68.85;25.50;;;;;;;14.65;97.31;100988.38;6127683;23;20077;-86
2021/07/28 01:18:44;;;;;;;65.47;25.60;;;;;;;14.64;97.27;100987.47;6127479;23;20485;-82
2021/07/28 01:21:11;;;;;;;74.60;25.80;;;;;;;14.65;97.34;100981.28;6128256;23;20010;-82
2021/07/28 01:23:38;;;;;;;81.95;26.83;;;;;;;14.66;97.46;100985.72;6127392;23;20006;-84
2021/07/28 01:26:05;;;;;;;64.30;25.30;;;;;;;14.67;97.52;100981.28;6128141;23;20382;-80
2021/07/28 01:28:32;;;;;;;63.83;26.33;;;;;;;14.67;97.40;100981.28;6127876;23;20024;-83
2021/07/28 01:31:39;;;;;;;71.70;26.95;;;;;;;14.66;97.45;100984.81;6126681;23;20489;-82
2021/07/28 01:34:06;;;;;;;72.95;26.20;;;;;;;14.66;97.50;100979.50;6127791;23;20009;-84
2021/07/28 01:36:34;;;;;;;64.53;25.27;;;;;;;14.65;97.48;100981.28;6128021;23;20010;-84
2021/07/28 01:39:21;;;;;;;68.90;26.17;;;;;;;14.65;97.55;100976.00;6101522;23;20014;-86
2021/07/28 01:42:19;;;;;;;71.13;24.98;;;;;;;14.65;97.41;100970.69;6126360;23;20040;-85
2021/07/28 01:44:45;;;;;;;70.43;25.45;;;;;;;14.65;97.56;100961.88;6100314;23;20021;-82
2021/07/28 01:47:10;;;;;;;74.07;26.42;;;;;;;14.65;97.52;100967.16;6127233;23;20002;-85
2021/07/28 01:49:36;;;;;;;69.60;25.55;;;;;;;14.65;97.56;100959.22;6127575;23;20061;-86
2021/07/28 01:52:01;;;;;;;69.55;25.67;;;;;;;14.66;97.63;100963.63;6126659;23;20259;-85
2021/07/28 01:54:27;;;;;;;72.30;25.35;;;;;;;14.68;97.70;100956.56;6126604;23;20029;-80
2021/07/28 01:56:52;;;;;;;73.22;26.10;;;;;;;14.68;97.78;100956.56;6127164;23;20006;-83
2021/07/28 01:59:18;;;;;;;85.20;28.15;;;;;;;14.71;97.75;100961.88;6127990;23;20002;-77
2021/07/28 02:01:43;;;;;;;80.70;28.10;;;;;;;14.68;97.87;100961.88;6127936;23;20009;-84
2021/07/28 02:04:09;;;;;;;80.45;27.55;;;;;;;14.69;97.85;100963.66;6129343;23;20025;-82
2021/07/28 02:06:34;;;;;;;81.22;28.02;;;;;;;14.68;97.96;100959.22;6130018;23;20002;-80
2021/07/28 02:09:00;;;;;;;80.28;27.88;;;;;;;14.67;97.97;100955.66;6129641;23;20013;-82
2021/07/28 02:11:25;;;;;;;87.28;30.40;;;;;;;14.66;97.98;100961.88;6129467;23;20029;-84
2021/07/28 02:13:51;;;;;;;88.22;29.10;;;;;;;14.67;97.97;100966.25;6129272;23;20038;-83
2021/07/28 02:16:16;;;;;;;92.18;29.55;;;;;;;14.67;97.89;100955.66;6129681;23;20005;-81
2021/07/28 02:18:41;;;;;;;90.07;31.63;;;;;;;14.68;98.04;100956.56;6129332;23;20028;-80
2021/07/28 02:21:07;;;;;;;95.65;29.98;;;;;;;14.69;98.11;100952.16;6129454;23;20077;-84
2021/07/28 02:23:32;;;;;;;87.60;28.02;;;;;;;14.70;98.20;100954.78;6129846;23;20002;-84
2021/07/28 02:25:58;;;;;;;94.40;31.38;;;;;;;14.72;98.25;100953.03;6128693;23;20018;-83
2021/07/28 02:28:24;;;;;;;93.50;31.65;;;;;;;14.74;98.07;100956.56;6104388;23;20029;-81
2021/07/28 02:30:49;;;;;;;102.45;32.22;;;;;;;14.74;98.32;100956.56;6130024;23;20445;-89
2021/07/28 02:33:15;;;;;;;108.70;33.47;;;;;;;14.75;98.27;100949.53;6130830;23;20024;-86
2021/07/28 02:35:40;;;;;;;92.22;31.55;;;;;;;14.77;98.12;100951.28;6105559;23;20010;-82
2021/07/28 02:38:06;;;;;;;101.80;31.58;;;;;;;14.74;98.11;100951.25;6131335;23;20069;-87
2021/07/28 02:40:31;;;;;;;90.55;29.13;;;;;;;14.75;98.38;100953.03;6131900;23;20001;-89
2021/07/28 02:42:57;;;;;;;101.70;31.00;;;;;;;14.77;98.49;100951.28;6131221;23;20002;-81
2021/07/28 02:45:22;;;;;;;106.90;33.60;;;;;;;14.80;98.41;100953.06;6131349;23;20002;-81
2021/07/28 02:47:48;;;;;;;112.30;33.60;;;;;;;14.81;98.62;100944.22;6104786;23;20006;-84
2021/07/28 02:50:13;;;;;;;100.38;32.85;;;;;;;14.84;98.63;100946.88;6131044;23;20006;-84
2021/07/28 02:52:59;;;;;;;107.22;34.00;;;;;;;14.84;98.58;100946.88;6131408;23;20006;-81
2021/07/28 02:55:24;;;;;;;103.85;31.48;;;;;;;14.83;98.57;100940.69;6130000;23;20014;-91
2021/07/28 02:58:09;;;;;;;94.95;30.38;;;;;;;14.84;98.28;100947.75;6130413;23;20002;-81
2021/07/28 03:00:35;;;;;;;94.80;30.98;;;;;;;14.84;98.55;100946.88;6130501;23;20025;-86
2021/07/28 03:03:00;;;;;;;116.15;33.25;;;;;;;14.86;98.51;100944.22;6108034;23;20016;-82
2021/07/28 03:05:29;;;;;;;108.18;34.90;;;;;;;14.89;98.70;100945.09;6132502;23;20009;-83
2021/07/28 03:07:54;;;;;;;108.65;35.88;;;;;;;14.94;98.56;100948.63;6131343;23;20006;-90
2021/07/28 03:10:19;;;;;;;105.55;37.28;;;;;;;15.03;98.91;100954.81;6131346;23;20037;-82
2021/07/28 03:12:45;;;;;;;123.63;40.08;;;;;;;15.07;98.98;100948.63;6130500;23;20069;-91
2021/07/28 03:15:13;;;;;;;131.93;42.13;;;;;;;15.14;99.07;100951.28;6129894;23;20375;-84
2021/07/28 03:17:38;;;;;;;116.32;37.35;;;;;;;15.16;98.98;100949.50;6130187;23;19994;-91
2021/07/28 03:20:24;;;;;;;114.43;38.60;;;;;;;15.18;99.19;100953.06;6130260;23;20017;-87
2021/07/28 03:22:49;;;;;;;99.13;35.97;;;;;;;15.19;98.94;100948.63;6130336;23;20018;-87
2021/07/28 03:25:15;;;;;;;114.22;39.70;;;;;;;15.16;98.86;100949.50;6130524;23;20503;-83
2021/07/28 03:27:40;;;;;;;125.32;41.25;;;;;;;15.15;98.93;100942.47;6131309;23;20040;-84
2021/07/28 03:30:06;;;;;;;104.75;36.78;;;;;;;15.17;99.06;100943.31;6130585;23;20002;-86
2021/07/28 03:32:32;;;;;;;114.65;38.75;;;;;;;15.20;98.88;100945.09;6130250;23;20032;-81
2021/07/28 03:34:57;;;;;;;124.82;41.90;;;;;;;15.24;99.00;100932.72;6130187;23;20438;-80
2021/07/28 03:37:22;;;;;;;113.82;38.83;;;;;;;15.26;99.00;100934.50;6129953;23;20433;-79
2021/07/28 03:40:29;;;;;;;110.80;39.35;;;;;;;15.24;98.84;100935.38;6130338;23;20369;-86
2021/07/28 03:42:54;;;;;;;107.57;36.95;;;;;;;15.22;98.84;100938.03;6129648;23;20021;-80
2021/07/28 03:45:20;;;;;;;113.32;38.65;;;;;;;15.21;98.90;100936.25;6129792;23;20433;-86
2021/07/28 03:47:45;;;;;;;95.63;37.20;;;;;;;15.21;98.70;100928.31;6129107;23;20002;-80
2021/07/28 03:50:11;;;;;;;96.13;35.45;;;;;;;15.22;98.55;100922.13;6129681;23;20005;-88
2021/07/28 03:52:36;;;;;;;97.32;36.97;;;;;;;15.22;98.63;100931.84;6130665;23;20033;-87
2021/07/28 03:55:04;;;;;;;90.55;35.08;;;;;;;15.26;98.59;100930.94;6130523;23;20072;-83
2021/07/28 03:57:29;;;;;;;96.43;35.97;;;;;;;15.30;98.70;100932.69;6130347;23;20461;-79
2021/07/28 03:59:55;;;;;;;95.03;36.15;;;;;;;15.30;98.81;100927.41;6129570;23;20014;-80
2021/07/28 04:02:20;;;;;;;85.20;33.30;;;;;;;15.28;98.54;100924.75;6129733;23;20006;-80
2021/07/28 04:04:46;;;;;;;91.93;35.00;;;;;;;15.27;98.34;100938.00;6130179;23;20438;-85
2021/07/28 04:07:12;;;;;;;89.43;33.92;;;;;;;15.24;98.34;100930.06;6128495;23;19998;-80
2021/07/28 04:09:38;;;;;;;90.10;34.67;;;;;;;15.22;98.25;100927.44;6128223;23;20500;-81
2021/07/28 04:12:04;;;;;;;90.10;35.28;;;;;;;15.22;98.06;100927.44;6127903;23;20053;-92
2021/07/28 04:14:29;;;;;;;90.85;35.15;;;;;;;15.21;98.17;100920.34;6127195;23;20009;-88
2021/07/28 04:16:55;;;;;;;80.32;34.13;;;;;;;15.22;98.23;100923.88;6128014;23;19999;-83
2021/07/28 04:19:20;;;;;;;81.97;34.58;;;;;;;15.20;98.14;100930.97;6077445;23;20065;-85
2021/07/28 04:21:46;;;;;;;80.13;32.30;;;;;;;15.22;98.27;100937.13;6101420;23;20040;-82
2021/07/28 04:24:11;;;;;;;82.30;33.35;;;;;;;15.24;98.18;100932.72;6127359;23;20064;-81
2021/07/28 04:26:36;;;;;;;84.15;32.45;;;;;;;15.28;98.12;100932.72;6126789;23;20013;-82
2021/07/28 04:29:02;;;;;;;87.30;35.63;;;;;;;15.31;98.35;100937.13;6127881;23;20006;-86
2021/07/28 04:31:27;;;;;;;77.20;31.60;;;;;;;15.41;98.44;100938.88;6128067;23;20013;-86
2021/07/28 04:33:53;;;;;;;75.70;30.55;;;;;;;15.45;98.33;100930.03;6101891;23;20430;-88
2021/07/28 04:36:18;;;;;;;66.25;30.55;;;;;;;15.50;98.16;100932.66;6128467;23;20010;-82
2021/07/28 04:38:44;;;;;;;62.05;29.27;;;;;;;15.51;97.80;100930.00;6128277;23;20452;-85
2021/07/28 04:41:29;;;;;;;68.20;30.10;;;;;;;15.55;97.56;100930.03;6128498;23;20012;-85
2021/07/28 04:43:55;;;;;;;58.90;27.27;;;;;;;15.56;97.28;100929.13;6128074;23;20508;-87
2021/07/28 04:46:20;;;;;;;51.25;25.80;;;;;;;15.59;96.97;100932.66;6126691;23;20033;-81
2021/07/28 04:48:47;;;;;;;51.67;26.83;;;;;;;15.63;97.01;100938.84;6127549;23;20064;-86
2021/07/28 04:51:34;;;;;;;56.67;28.42;;;;;;;15.75;97.13;100927.28;6127092;23;20329;-77
2021/07/28 04:54:00;;;;;;;43.22;23.88;;;;;;;15.87;96.59;100931.72;6126897;23;20062;-84
2021/07/28 04:56:25;;;;;;;49.38;24.55;;;;;;;15.93;96.21;100929.91;6127274;23;20076;-84
2021/07/28 04:58:50;;;;;;;40.97;23.42;;;;;;;15.98;95.78;100919.28;6127289;23;20060;-79
2021/07/28 05:01:32;;;;;;;42.28;23.25;;;;;;;16.05;95.49;100928.97;6077356;23;20040;-83
2021/07/28 05:03:57;;;;;;;38.00;20.92;;;;;;;16.10;94.94;100927.19;6126996;23;20089;-85
2021/07/28 05:06:23;;;;;;;33.60;21.17;;;;;;;16.15;94.64;100922.72;6127688;23;20033;-81
2021/07/28 05:09:12;;;;;;;31.52;20.10;;;;;;;16.10;94.51;100923.63;6127912;23;20338;-89
2021/07/28 05:11:57;;;;;;;34.25;19.25;;;;;;;16.07;94.28;100924.53;6126977;23;20437;-82
2021/07/28 05:14:23;;;;;;;28.92;19.70;;;;;;;16.05;94.07;100923.69;6126727;23;20009;-81
2021/07/28 05:16:48;;;;;;;34.83;19.17;;;;;;;16.08;94.07;100930.75;6126559;23;20065;-87
2021/07/28 05:19:14;;;;;;;27.38;17.60;;;;;;;16.08;94.23;100926.31;6126548;23;20425;-82
2021/07/28 05:21:39;;;;;;;30.52;18.05;;;;;;;16.11;94.53;100926.28;6127080;23;20010;-85
2021/07/28 05:24:05;;;;;;;30.30;18.40;;;;;;;16.19;94.34;100924.47;6126258;23;20498;-79
2021/07/28 05:26:30;;;;;;;24.50;17.05;;;;;;;16.29;94.01;100924.41;6128343;23;20028;-83
2021/07/28 05:28:56;;;;;;;31.20;17.30;;;;;;;16.36;93.62;100920.84;6128507;23;20032;-85
2021/07/28 05:31:21;;;;;;;26.35;16.33;;;;;;;16.30;93.74;100926.19;6127168;23;20032;-83
2021/07/28 05:33:47;;;;;;;28.27;15.45;;;;;;;16.31;94.00;100923.53;6126307;23;20006;-81
2021/07/28 05:36:32;;;;;;;32.38;14.80;;;;;;;16.28;93.59;100922.69;6127042;23;20065;-87
2021/07/28 05:38:57;;;;;;;20.75;15.00;;;;;;;16.22;93.30;100928.00;6126469;23;20063;-79
2021/07/28 05:41:23;;;;;;;29.58;17.55;;;;;;;16.13;94.10;100924.50;6126942;23;20082;-78
2021/07/28 05:43:48;;;;;;;24.00;15.00;;;;;;;16.24;93.79;100924.47;6127110;23;20326;-82
2021/07/28 05:46:14;;;;;;;26.55;14.63;;;;;;;16.31;92.98;100925.31;6100873;23;20064;-81
2021/07/28 05:48:59;;;;;;;20.10;13.75;;;;;;;16.39;91.99;100925.28;6126574;23;20021;-82
2021/07/28 05:51:24;;;;;;;19.88;13.05;;;;;;;16.45;91.82;100917.25;6126343;23;20010;-81
2021/07/28 05:53:50;;;;;;;24.40;15.93;;;;;;;16.54;91.61;100914.53;6126583;23;20081;-80
2021/07/28 05:56:15;;;;;;;20.75;13.27;;;;;;;16.88;90.84;100918.72;6125939;23;20005;-78
2021/07/28 05:58:41;;;;;;;19.52;12.82;;;;;;;17.24;89.12;100906.00;6126253;23;20073;-80
2021/07/28 06:01:06;;;;;;;18.55;10.93;;;;;;;17.67;87.67;100908.19;6126396;23;20472;-83
2021/07/28 06:03:32;;;;;;;16.45;10.40;;;;;;;17.89;86.05;100897.28;6126311;23;20129;-84
2021/07/28 06:05:58;;;;;;;18.00;9.20;;;;;;;17.77;84.22;100896.56;6126395;23;20125;-81
2021/07/28 06:08:44;;;;;;;16.85;9.32;;;;;;;17.63;85.66;100902.00;6126597;23;20016;-80
2021/07/28 06:11:15;;;;;;;15.43;9.50;;;;;;;17.38;87.35;100903.19;6126122;23;20014;-78
2021/07/28 06:13:41;;;;;;;16.38;9.65;;;;;;;17.24;86.72;100906.91;6125902;23;20017;-77
2021/07/28 06:16:06;;;;;;;14.57;8.40;;;;;;;17.09;86.26;100897.28;6100181;23;20347;-79
2021/07/28 06:18:33;;;;;;;11.20;8.38;;;;;;;16.97;87.38;100908.91;6126114;23;20002;-79
2021/07/28 06:20:59;;;;;;;11.05;7.78;;;;;;;16.91;87.09;100906.28;6127066;23;20176;-80
2021/07/28 06:23:44;;;;;;;15.07;8.13;;;;;;;16.77;88.02;100901.06;6126369;23;20009;-81
2021/07/28 06:26:10;;;;;;;15.75;8.80;;;;;;;16.78;88.38;100908.16;6126392;23;20022;-85
2021/07/28 06:28:35;;;;;;;15.82;9.10;;;;;;;16.81;89.10;100908.13;6100484;23;20013;-84
2021/07/28 06:31:01;;;;;;;11.55;8.52;;;;;;;16.69;89.29;100910.88;6126436;23;20085;-78
2021/07/28 06:33:26;;;;;;;12.85;8.38;;;;;;;16.67;89.27;100916.22;6126638;23;20002;-78
2021/07/28 06:36:12;;;;;;;16.63;8.73;;;;;;;16.54;89.67;100918.97;6125677;23;20081;-75
2021/07/28 06:38:37;;;;;;;13.18;8.15;;;;;;;16.55;88.82;100920.72;6125924;23;20010;-79
2021/07/28 06:41:03;;;;;;;15.93;8.38;;;;;;;16.52;89.47;100911.91;6126197;23;20338;-76
2021/07/28 06:43:28;;;;;;;21.08;8.90;;;;;;;16.49;89.62;100922.53;6126104;23;20249;-80
2021/07/28 06:46:16;;;;;;;15.80;9.27;;;;;;;16.46;90.33;100927.00;6126087;23;20016;-78
2021/07/28 06:48:42;;;;;;;21.10;9.00;;;;;;;16.41;89.90;100924.34;6125741;23;20409;-80
2021/07/28 06:51:07;;;;;;;11.13;7.97;;;;;;;16.47;89.55;100924.31;6128017;23;20037;-80
2021/07/28 06:53:32;;;;;;;16.50;8.93;;;;;;;16.50;89.82;100916.31;6128345;23;20073;-83
2021/07/28 06:55:58;;;;;;;14.48;8.15;;;;;;;16.50;89.23;100908.34;6128032;23;20002;-82
2021/07/28 06:58:23;;;;;;;15.95;9.05;;;;;;;16.60;89.73;100914.47;6127356;23;19998;-78
2021/07/28 07:00:49;;;;;;;15.80;8.30;;;;;;;16.65;88.83;100906.50;6126480;23;20089;-79
2021/07/28 07:03:14;;;;;;;14.57;7.80;;;;;;;16.74;88.21;100903.75;6127683;23;20052;-83
2021/07/28 07:05:39;;;;;;;14.98;8.00;;;;;;;16.90;88.93;100901.00;6127213;23;20017;-81
2021/07/28 07:08:25;;;;;;;24.48;9.05;;;;;;;17.10;86.91;100895.50;6127843;23;20057;-79
2021/07/28 07:10:56;;;;;;;15.00;8.02;;;;;;;17.26;86.63;100899.78;6127878;23;20028;-81
2021/07/28 07:13:21;;;;;;;15.98;7.05;;;;;;;17.29;85.46;100897.06;6102187;23;20039;-79
2021/07/28 07:15:48;;;;;;;13.55;7.82;;;;;;;17.40;86.14;100896.09;6126253;23;20032;-80
2021/07/28 07:18:13;;;;;;;19.13;7.20;;;;;;;17.41;84.23;100888.09;6120666;23;20005;-81
2021/07/28 07:20:38;;;;;;;18.10;6.88;;;;;;;17.42;85.46;100897.84;6125090;23;20017;-83
2021/07/28 07:23:04;;;;;;;15.75;7.50;;;;;;;17.30;85.03;100900.63;6125753;23;20013;-77
2021/07/28 07:25:30;;;;;;;19.05;7.80;;;;;;;17.15;85.84;100897.22;6125468;23;20018;-83
2021/07/28 07:28:15;;;;;;;16.77;7.82;;;;;;;17.13;85.95;100896.38;6126046;23;20025;-81
2021/07/28 07:30:40;;;;;;;13.43;7.40;;;;;;;17.28;85.26;100907.72;6127196;23;20006;-80
2021/07/28 07:35:52;;;;;;;15.32;7.38;;;;;;;17.36;84.03;100900.53;6125316;23;20021;-83
2021/07/28 07:38:18;;;;;;;18.85;7.25;;;;;;;17.31;84.97;100902.41;6126333;23;20006;-82
2021/07/28 07:40:43;;;;;;;14.05;7.88;;;;;;;17.30;84.66;100896.19;6126666;23;20441;-80
2021/07/28 07:43:09;;;;;;;11.35;7.43;;;;;;;17.47;84.63;100901.34;6100684;23;20077;-79
2021/07/28 07:45:36;;;;;;;15.20;7.72;;;;;;;17.71;84.76;100901.94;6126433;23;20010;-82
2021/07/28 07:48:22;;;;;;;13.00;7.35;;;;;;;17.79;83.18;100894.72;6126824;23;20013;-80
2021/07/28 07:50:48;;;;;;;8.82;6.05;;;;;;;17.78;83.27;100892.97;6125032;23;20530;-81
2021/07/28 07:53:13;;;;;;;13.43;6.80;;;;;;;17.70;82.24;100897.50;6126115;23;20029;-79
2021/07/28 07:55:39;;;;;;;15.50;6.60;;;;;;;17.65;82.37;100904.69;6124405;23;20015;-84
2021/07/28 07:58:04;;;;;;;17.98;6.55;;;;;;;17.53;83.42;100903.91;6098747;23;20421;-80
2021/07/28 08:00:30;;;;;;;13.70;7.05;;;;;;;17.55;83.23;100911.00;6098158;23;20477;-80
2021/07/28 08:02:56;;;;;;;16.17;7.47;;;;;;;17.51;83.50;100905.72;6123765;23;20044;-80
2021/07/28 08:05:21;;;;;;;13.07;7.15;;;;;;;17.43;82.92;100902.25;6124747;23;20014;-84
2021/07/28 08:07:47;;;;;;;15.60;6.75;;;;;;;17.36;83.32;100906.78;6124503;23;19998;-79
2021/07/28 08:10:27;;;;;;;11.27;6.43;;;;;;;17.33;83.77;100908.56;6125612;23;20001;-81
2021/07/28 08:12:53;;;;;;;15.57;6.32;;;;;;;17.27;84.20;100905.97;6126430;23;20068;-80
2021/07/28 08:15:18;;;;;;;14.10;6.40;;;;;;;17.26;83.02;100909.53;6122634;23;20084;-79
2021/07/28 08:18:05;;;;;;;12.70;6.47;;;;;;;17.29;84.12;100905.03;6116512;23;20451;-87
2021/07/28 08:20:31;;;;;;;11.90;6.10;;;;;;;17.43;83.18;100907.59;6124273;23;20065;-81
2021/07/28 08:22:56;;;;;;;16.27;6.93;;;;;;;17.49;83.66;100912.81;6124762;23;20377;-77
2021/07/28 08:25:25;;;;;;;11.65;5.80;;;;;;;17.58;83.23;100914.53;6122655;23;20037;-81
2021/07/28 08:27:51;;;;;;;10.25;6.03;;;;;;;17.57;82.96;100903.91;6124516;23;20426;-81
2021/07/28 08:30:16;;;;;;;19.65;7.05;;;;;;;17.51;83.63;100912.81;6124257;23;20048;-79
2021/07/28 08:32:42;;;;;;;15.88;6.18;;;;;;;17.49;82.56;100912.81;6125429;23;20021;-78
2021/07/28 08:35:09;;;;;;;19.88;7.25;;;;;;;17.45;82.40;100915.53;6124486;23;20016;-78
2021/07/28 08:37:37;;;;;;;13.40;6.55;;;;;;;17.43;82.91;100919.97;6124925;23;20002;-82
2021/07/28 08:40:25;;;;;;;19.77;7.57;;;;;;;17.44;82.81;100919.97;6125702;23;20045;-83
2021/07/28 08:42:54;;;;;;;8.98;7.20;;;;;;;17.66;82.75;100919.72;6123788;23;20016;-83
2021/07/28 08:45:22;;;;;;;16.38;7.47;;;;;;;17.99;80.66;100907.81;6125824;23;20437;-78
2021/07/28 08:47:48;;;;;;;14.05;6.85;;;;;;;18.29;78.58;100904.78;6124820;23;20013;-83
2021/07/28 08:50:22;;;;;;;12.77;6.53;;;;;;;18.47;78.63;100898.28;6126406;23;20014;-81
2021/07/28 08:52:54;;;;;;;19.08;6.70;;;;;;;18.61;77.23;100892.72;6126130;23;20014;-85
2021/07/28 08:55:21;;;;;;;15.07;6.68;;;;;;;18.62;77.57;100903.34;6126526;23;20045;-81
2021/07/28 08:57:49;;;;;;;8.80;5.82;;;;;;;18.54;78.06;100903.50;6098768;23;20005;-83
2021/07/28 09:00:17;;;;;;;18.38;7.18;;;;;;;18.25;78.00;100908.38;6126699;23;20021;-80
2021/07/28 09:03:03;;;;;;;15.63;7.07;;;;;;;18.20;78.75;100909.31;6126988;23;20068;-83
2021/07/28 09:06:11;;;;;;;17.35;6.72;;;;;;;18.13;78.99;100912.09;6126864;23;20012;-80
2021/07/28 09:08:39;;;;;;;12.57;6.30;;;;;;;18.13;78.93;100910.28;6125697;23;20045;-85
2021/07/28 09:11:37;;;;;;;14.35;6.82;;;;;;;18.18;79.55;100907.59;6126455;23;20002;-81
2021/07/28 09:14:18;;;;;;;13.77;6.85;;;;;;;18.25;79.54;100917.25;6122779;23;20065;-89
2021/07/28 09:16:44;;;;;;;14.90;6.85;;;;;;;18.43;80.24;100912.56;6125204;23;20014;-83
2021/07/28 09:19:21;;;;;;;14.93;6.75;;;;;;;18.50;80.19;100915.09;6122425;23;20040;-89
2021/07/28 09:22:10;;;;;;;14.73;7.10;;;;;;;18.57;77.75;100905.25;6125719;23;20029;-87
2021/07/28 09:25:36;;;;;;;14.93;7.25;;;;;;;18.61;78.93;100919.38;6121635;23;20025;-84
2021/07/28 09:32:05;;;;;;;20.02;6.20;;;;;;;18.43;77.65;100912.56;6122369;23;20644;-86
2021/07/28 09:34:58;;;;;;;13.23;7.18;;;;;;;18.46;76.90;100908.06;6005473;23;20008;-85
2021/07/28 09:37:53;;;;;;;14.60;6.30;;;;;;;18.58;77.56;100916.75;6030906;23;20098;-83
2021/07/28 09:40:59;;;;;;;9.93;6.43;;;;;;;18.66;77.26;100913.06;6099284;23;20394;-85
2021/07/28 09:44:37;;;;;;;10.00;5.40;;;;;;;18.86;76.83;100918.06;6123608;23;20014;-88
2021/07/28 09:47:31;;;;;;;11.90;6.05;;;;;;;19.18;74.77;100903.34;6126295;23;20001;-82
2021/07/28 09:50:02;;;;;;;15.77;5.53;;;;;;;19.46;73.06;100891.28;6126131;23;20013;-87
2021/07/28 09:53:08;;;;;;;9.77;5.57;;;;;;;19.45;73.16;100900.19;6125183;23;20373;-85
2021/07/28 09:55:54;;;;;;;15.15;5.78;;;;;;;19.69;73.99;100899.69;6118661;23;20017;-88
2021/07/28 09:59:04;;;;;;;12.48;5.38;;;;;;;19.97;70.92;100898.28;6126249;23;20485;-82
2021/07/28 10:02:14;;;;;;;9.60;5.10;;;;;;;19.94;71.56;100887.63;6127649;23;20088;-88
2021/07/28 10:08:35;;;;;;;7.43;4.93;;;;;;;19.60;72.46;100899.00;6076731;23;20086;-83
2021/07/28 10:11:03;;;;;;;10.98;4.38;;;;;;;19.95;71.28;100895.63;6067992;23;20094;-87
2021/07/28 10:13:29;;;;;;;12.25;4.75;;;;;;;19.69;71.65;100893.47;6094236;23;20026;-83
2021/07/28 10:16:34;;;;;;;11.00;5.00;;;;;;;19.68;72.08;100897.94;6127011;23;20448;-81
2021/07/28 10:19:46;;;;;;;19.52;4.82;;;;;;;19.60;71.94;100896.31;6008859;23;20015;-83
2021/07/28 10:22:26;;;;;;;9.82;4.22;;;;;;;20.13;71.13;100889.00;6006112;23;20028;-85
2021/07/28 10:24:58;;;;;;;10.25;4.50;;;;;;;20.57;70.93;100896.03;6010918;23;20462;-83
2021/07/28 10:31:32;;;;;;;10.52;4.38;;;;;;;20.55;68.26;100886.25;5983301;24;20091;-85
2021/07/28 10:34:52;;;;;;;10.68;4.40;;;;;;;21.08;66.54;100876.94;5984751;24;20008;-86
2021/07/28 10:38:03;;;;;;;9.30;4.18;;;;;;;20.66;69.06;100893.09;5983544;24;20386;-89
2021/07/28 10:40:51;;;;;;;;;;;;;;;;;;;;;
2021/07/28 10:44:13;;;;;;;9.10;4.28;;;;;;;20.18;68.34;100897.81;6101221;23;20014;-80
2021/07/28 10:47:12;;;;;;;9.55;4.18;;;;;;;19.99;68.67;100891.97;6100089;23;20030;-83
2021/07/28 10:50:01;;;;;;;7.20;3.90;;;;;;;20.21;69.04;100902.16;6073454;23;20445;-85
2021/07/28 10:52:59;;;;;;;13.02;4.00;;;;;;;19.92;69.70;100900.16;6100011;23;20007;-88
2021/07/28 10:56:08;;;;;;;12.00;3.72;;;;;;;19.73;69.93;100897.84;6095194;23;20457;-82
2021/07/28 10:59:24;;;;;;;8.57;3.85;;;;;;;19.94;69.73;100888.53;6100210;23;20002;-85
2021/07/28 11:02:22;;;;;;;11.13;3.40;;;;;;;20.11;72.82;100912.19;6100647;23;20018;-84
2021/07/28 11:05:25;;;;;;;5.82;3.15;;;;;;;20.51;68.94;100900.59;6047046;23;20010;-88
2021/07/28 11:08:46;;;;;;;11.95;3.70;;;;;;;20.52;68.70;100907.72;6099998;23;20085;-83
2021/07/28 11:11:32;;;;;;;8.45;3.40;;;;;;;20.20;70.71;100905.78;6098587;23;20086;-85
2021/07/28 11:14:40;;;;;;;7.45;3.95;;;;;;;20.74;67.48;100906.31;6098355;23;20015;-83
2021/07/28 11:17:42;;;;;;;7.45;3.58;;;;;;;20.89;66.43;100909.50;6098457;23;20086;-87
2021/07/28 11:21:01;;;;;;;7.90;3.40;;;;;;;21.04;67.10;100918.06;6024529;23;20019;-85
2021/07/28 11:24:14;;;;;;;10.18;3.60;;;;;;;20.87;67.61;100902.44;6099682;23;20013;-84
2021/07/28 11:27:25;;;;;;;10.73;3.60;;;;;;;20.86;67.09;100906.03;6097466;23;20048;-85
2021/07/28 11:30:36;;;;;;;8.77;3.15;;;;;;;21.76;63.78;100901.84;6096565;23;20017;-87
2021/07/28 11:33:41;;;;;;;7.88;2.88;;;;;;;22.89;60.92;100896.53;6099822;23;20014;-86
2021/07/28 11:37:01;;;;;;;10.70;3.78;;;;;;;22.93;60.84;100900.00;6098789;23;20033;-87
2021/07/28 11:40:21;;;;;;;12.18;3.35;;;;;;;23.04;60.45;100891.56;6042236;23;20098;-85
2021/07/28 11:43:19;;;;;;;8.85;3.00;;;;;;;22.88;59.30;100881.38;5990877;23;20027;-84
2021/07/28 11:46:18;;;;;;;7.63;3.05;;;;;;;22.63;60.53;100885.81;6039096;23;20112;-81
2021/07/28 11:49:42;;;;;;;;;;;;;;;;;;;;;
2021/07/28 11:52:15;;;;;;;8.95;3.30;;;;;;;23.25;57.50;100892.66;6033684;23;20011;-82
2021/07/28 11:55:22;;;;;;;10.10;3.03;;;;;;;22.86;57.88;100888.59;6038228;23;20018;-84
2021/07/28 11:58:14;;;;;;;;;;;;;;;;;;;;;
2021/07/28 12:00:52;;;;;;;6.00;2.90;;;;;;;22.66;62.70;100908.03;6036237;23;20091;-82
2021/07/28 12:03:56;;;;;;;7.90;3.30;;;;;;;21.90;64.26;100917.50;6039220;23;20011;-85
2021/07/28 12:07:00;;;;;;;8.50;3.72;;;;;;;21.83;63.62;100910.59;6037899;23;20011;-83
2021/07/28 12:10:16;;;;;;;5.35;3.97;;;;;;;21.59;67.15;100934.44;6038668;23;20127;-88